Rockford, IL

10:23 PM CDT on September 01, 2015 (GMT -0500)
Greenlee Estates | | Change Station
CLOSE
Current Station
Personal Weather Station
Location: Winnebago, IL
Elevation: 850 ft
Nearby Weather Stations

Elev 850 ft 42.26 °N, 89.23 °W | Updated 13 seconds ago

Partly Cloudy
Partly Cloudy
75.6 °F
Feels Like 77 °F
N
0.0
Wind Variable Wind from SW
Gusts 0.0 mph

Today
High -- | Low -- °F
--% Chance of Precip.
Yesterday
High -- | Low -- °F
Precip. -- in
6:21 AM 7:30 PM
Waning Gibbous, 84% visible
Pressure 30.01 in
Visibility 9.0 miles
Clouds Scattered Clouds 25000 ft
Heat Index 77 °F
Dew Point 65 °F
Humidity 70%
Rainfall 0.00 in
Snow Depth Not available.
UV 0.0 out of 12
Pollen 11.00 out of 12
Air Quality Not available.
Flu Activity Not available.
METAR KRFD 020254Z 19005KT 9SM SCT250 23/21 A3003 RMK AO2 SLP163 T02330211 53012
Pressure 30.01 in
Visibility 9.0 miles
Clouds Scattered Clouds 25000 ft
Heat Index 77 °F
Dew Point 65 °F
Humidity 70%
Rainfall 0.00 in
Snow Depth Not available.
UV 0.0 out of 12
Pollen 11.00 out of 12
Air Quality Not available.
Flu Activity Not available.
METAR KRFD 020254Z 19005KT 9SM SCT250 23/21 A3003 RMK AO2 SLP163 T02330211 53012

10-Day Weather Forecast

×

Almanac

Astronomy

Sep. 01, 2015 Rise Set
Actual Time
Civil Twilight
Nautical Twilight
Astronomical Twilight
Moon
Length of Visible Light
Length of Day
Tomorrow will be .
, % of the Moon is Illuminated

Today's Extremes

State Highs State Lows

Community

WunderPhotos

Upload Photos

1,851,680 photos uploaded!

WunderBlogs® & News

Nearby

Air Quality

  Air Quality AQ Index Pollutant
Not available.

Snow Depth

Station Depth Elevation

Earthquake Activity

City Distance Mag. Time & Date
Minimum magnitude displayed is 2.5.

Coastal Water Temperatures

Place Temperature

Stations

Nearby Weather Stations

Station Location Temp. Windchill Dew Point Humidity Wind Precip. Elev Updated Type